Time;durP1;ratioP1;P1;durP2;ratioP2;P2;SDS_P1;SDS_P2;PMS_P1;PMS_P2;Temp;Humidity;BMP_temperature;BMP_pressure;BME280_temperature;BME280_humidity;BME280_pressure;Samples;Min_cycle;Max_cycle;Signal;HPM_P1;HPM_P2
2019/09/02 00:01:03;;;;;;;8.4;6.6;;;;;;;;;;;;;
2019/09/02 00:03:28;;;;;;;8.5;6.1;;;;;;;;;;;;;
2019/09/02 00:05:59;;;;;;;8.9;6.2;;;;;;;;;;;;;
2019/09/02 00:08:19;;;;;;;8.7;6.5;;;;;;;;;;;;;
2019/09/02 00:10:43;;;;;;;10.3;6.7;;;;;;;;;;;;;
2019/09/02 00:13:09;;;;;;;9;6.4;;;;;;;;;;;;;
2019/09/02 00:15:36;;;;;;;8.5;6.1;;;;;;;;;;;;;
2019/09/02 00:17:59;;;;;;;7.7;5.9;;;;;;;;;;;;;
2019/09/02 00:20:24;;;;;;;7.4;5.7;;;;;;;;;;;;;
2019/09/02 00:22:58;;;;;;;6.6;5.8;;;;;;;;;;;;;
2019/09/02 00:25:20;;;;;;;9.5;6;;;;;;;;;;;;;
2019/09/02 00:27:49;;;;;;;9.4;6.1;;;;;;;;;;;;;
2019/09/02 00:30:16;;;;;;;8;5.7;;;;;;;;;;;;;
2019/09/02 00:32:38;;;;;;;9.9;6.2;;;;;;;;;;;;;
2019/09/02 00:35:09;;;;;;;9;6.3;;;;;;;;;;;;;
2019/09/02 00:37:34;;;;;;;7.4;5.2;;;;;;;;;;;;;
2019/09/02 00:39:54;;;;;;;9.4;5.5;;;;;;;;;;;;;
2019/09/02 00:42:19;;;;;;;7.5;5.2;;;;;;;;;;;;;
2019/09/02 00:44:43;;;;;;;7.2;5.2;;;;;;;;;;;;;
2019/09/02 00:47:11;;;;;;;10;5.3;;;;;;;;;;;;;
2019/09/02 00:49:38;;;;;;;8.8;5.3;;;;;;;;;;;;;
2019/09/02 00:52:02;;;;;;;6.4;5;;;;;;;;;;;;;
2019/09/02 00:54:30;;;;;;;7.8;5.7;;;;;;;;;;;;;
2019/09/02 00:56:53;;;;;;;7.7;5.7;;;;;;;;;;;;;
2019/09/02 00:59:17;;;;;;;7.6;5;;;;;;;;;;;;;
2019/09/02 01:01:43;;;;;;;7.8;4.8;;;;;;;;;;;;;
2019/09/02 01:04:09;;;;;;;9;4.9;;;;;;;;;;;;;
2019/09/02 01:06:33;;;;;;;7.6;4.3;;;;;;;;;;;;;
2019/09/02 01:08:58;;;;;;;9.1;4;;;;;;;;;;;;;
2019/09/02 01:11:30;;;;;;;7.8;4.4;;;;;;;;;;;;;
2019/09/02 01:13:59;;;;;;;6.3;4.2;;;;;;;;;;;;;
2019/09/02 01:16:25;;;;;;;8.1;4.4;;;;;;;;;;;;;
2019/09/02 01:18:49;;;;;;;8.9;3.8;;;;;;;;;;;;;
2019/09/02 01:21:14;;;;;;;3.9;3;;;;;;;;;;;;;
2019/09/02 01:23:50;;;;;;;6.7;2.8;;;;;;;;;;;;;
2019/09/02 01:26:07;;;;;;;3.1;2.5;;;;;;;;;;;;;
2019/09/02 01:28:31;;;;;;;4.3;2.5;;;;;;;;;;;;;
2019/09/02 01:30:59;;;;;;;3.8;2.9;;;;;;;;;;;;;
2019/09/02 01:33:22;;;;;;;6.5;3.5;;;;;;;;;;;;;
2019/09/02 01:35:47;;;;;;;4.5;3.6;;;;;;;;;;;;;
2019/09/02 01:38:11;;;;;;;5;3.7;;;;;;;;;;;;;
2019/09/02 01:40:41;;;;;;;4.4;3.7;;;;;;;;;;;;;
2019/09/02 01:43:04;;;;;;;5.5;3.5;;;;;;;;;;;;;
2019/09/02 01:45:28;;;;;;;5.4;3.7;;;;;;;;;;;;;
2019/09/02 01:47:53;;;;;;;4.4;3.4;;;;;;;;;;;;;
2019/09/02 01:50:19;;;;;;;4.3;3.3;;;;;;;;;;;;;
2019/09/02 01:52:43;;;;;;;4.6;3.5;;;;;;;;;;;;;
2019/09/02 01:55:08;;;;;;;4.5;3.4;;;;;;;;;;;;;
2019/09/02 01:57:33;;;;;;;6.1;3.6;;;;;;;;;;;;;
2019/09/02 02:00:01;;;;;;;5.5;3.3;;;;;;;;;;;;;
2019/09/02 02:02:24;;;;;;;4.2;3.2;;;;;;;;;;;;;
2019/09/02 02:04:49;;;;;;;5.9;3.4;;;;;;;;;;;;;
2019/09/02 02:07:14;;;;;;;5;3.4;;;;;;;;;;;;;
2019/09/02 02:09:43;;;;;;;5.2;3.4;;;;;;;;;;;;;
2019/09/02 02:12:08;;;;;;;4.4;3.4;;;;;;;;;;;;;
2019/09/02 02:14:41;;;;;;;6.2;3.5;;;;;;;;;;;;;
2019/09/02 02:17:11;;;;;;;4.9;3.3;;;;;;;;;;;;;
2019/09/02 02:19:33;;;;;;;5.4;3.1;;;;;;;;;;;;;
2019/09/02 02:22:01;;;;;;;5.2;3;;;;;;;;;;;;;
2019/09/02 02:24:23;;;;;;;5.7;3.3;;;;;;;;;;;;;
2019/09/02 02:26:49;;;;;;;3.7;3.3;;;;;;;;;;;;;
2019/09/02 02:29:32;;;;;;;7.4;3.5;;;;;;;;;;;;;
2019/09/02 02:31:58;;;;;;;5.2;3.4;;;;;;;;;;;;;
2019/09/02 02:34:21;;;;;;;4.7;3.4;;;;;;;;;;;;;
2019/09/02 02:36:45;;;;;;;5.1;3.1;;;;;;;;;;;;;
2019/09/02 02:39:30;;;;;;;7.4;3.2;;;;;;;;;;;;;
2019/09/02 02:41:42;;;;;;;4.1;3.3;;;;;;;;;;;;;
2019/09/02 02:44:10;;;;;;;7;3.5;;;;;;;;;;;;;
2019/09/02 02:46:35;;;;;;;6.3;3.1;;;;;;;;;;;;;
2019/09/02 02:48:58;;;;;;;5.6;3.4;;;;;;;;;;;;;
2019/09/02 02:51:24;;;;;;;9.4;3.5;;;;;;;;;;;;;
2019/09/02 02:53:51;;;;;;;6;3.6;;;;;;;;;;;;;
2019/09/02 02:56:15;;;;;;;6.7;3.3;;;;;;;;;;;;;
2019/09/02 02:58:39;;;;;;;6.9;3.4;;;;;;;;;;;;;
2019/09/02 03:01:04;;;;;;;7;3.6;;;;;;;;;;;;;
2019/09/02 03:03:30;;;;;;;8.3;3.8;;;;;;;;;;;;;
2019/09/02 03:05:55;;;;;;;5.9;3.7;;;;;;;;;;;;;
2019/09/02 03:08:22;;;;;;;5.5;3.9;;;;;;;;;;;;;
2019/09/02 03:10:53;;;;;;;6;3.8;;;;;;;;;;;;;
2019/09/02 03:13:13;;;;;;;5.5;4.1;;;;;;;;;;;;;
2019/09/02 03:15:37;;;;;;;5.9;4.3;;;;;;;;;;;;;
2019/09/02 03:18:03;;;;;;;6.6;4.2;;;;;;;;;;;;;
2019/09/02 03:20:32;;;;;;;7.5;4.3;;;;;;;;;;;;;
2019/09/02 03:22:58;;;;;;;4.7;3.8;;;;;;;;;;;;;
2019/09/02 03:25:26;;;;;;;7.7;4;;;;;;;;;;;;;
2019/09/02 03:27:50;;;;;;;9.3;4.7;;;;;;;;;;;;;
2019/09/02 03:30:15;;;;;;;7;4.5;;;;;;;;;;;;;
2019/09/02 03:32:39;;;;;;;7.1;4;;;;;;;;;;;;;
2019/09/02 03:35:36;;;;;;;6.6;4.3;;;;;;;;;;;;;
2019/09/02 03:38:37;;;;;;;5.5;4.1;;;;;;;;;;;;;
2019/09/02 03:41:03;;;;;;;6.6;4.3;;;;;;;;;;;;;
2019/09/02 03:43:28;;;;;;;5.4;3.7;;;;;;;;;;;;;
2019/09/02 03:45:53;;;;;;;5.2;4.1;;;;;;;;;;;;;
2019/09/02 03:48:23;;;;;;;6.1;3.7;;;;;;;;;;;;;
2019/09/02 03:50:45;;;;;;;7;4.5;;;;;;;;;;;;;
2019/09/02 03:53:12;;;;;;;6;4.2;;;;;;;;;;;;;
2019/09/02 03:55:38;;;;;;;5.9;4.1;;;;;;;;;;;;;
2019/09/02 03:58:02;;;;;;;7.9;4.4;;;;;;;;;;;;;
2019/09/02 04:02:39;;;;;;;5.6;3.7;;;;;;;17.28;83.89453;940.4255;;;;
2019/09/02 04:05:06;;;;;;;6.4;4.4;;;;;;;17.28;85.56445;940.416;;;;
2019/09/02 04:07:38;;;;;;;6.6;4;;;;;;;17.3;83.92285;940.4277;;;;
2019/09/02 04:10:09;;;;;;;5.7;4.1;;;;;;;17.36;84.88477;940.3923;;;;
2019/09/02 04:12:40;;;;;;;6.5;4.4;;;;;;;17.43;84.96777;940.4174;;;;
2019/09/02 04:15:07;;;;;;;6;4.4;;;;;;;;;;;;;
2019/09/02 04:17:36;;;;;;;6.9;4.5;;;;;;;;;;;;;
2019/09/02 04:19:59;;;;;;;7.1;4.6;;;;;;;;;;;;;
2019/09/02 04:22:31;;;;;;;6.2;4.1;;;;;;;;;;;;;
2019/09/02 04:24:57;;;;;;;5.8;4.3;;;;;;;;;;;;;
2019/09/02 04:27:19;;;;;;;9.7;5;;;;;;;;;;;;;
2019/09/02 04:29:43;;;;;;;5.4;3.7;;;;;;;;;;;;;
2019/09/02 04:32:10;;;;;;;6.6;3.8;;;;;;;;;;;;;
2019/09/02 04:34:38;;;;;;;7.8;3.9;;;;;;;;;;;;;
2019/09/02 04:37:05;;;;;;;6.8;4.2;;;;;;;;;;;;;
2019/09/02 04:39:33;;;;;;;6.4;4.6;;;;;;;;;;;;;
2019/09/02 04:41:54;;;;;;;7.3;4.9;;;;;;;;;;;;;
2019/09/02 04:44:19;;;;;;;7.7;5.3;;;;;;;;;;;;;
2019/09/02 04:46:48;;;;;;;8;5.2;;;;;;;;;;;;;
2019/09/02 04:49:11;;;;;;;6.8;5;;;;;;;;;;;;;
2019/09/02 04:51:39;;;;;;;8.2;5.8;;;;;;;;;;;;;
2019/09/02 04:54:01;;;;;;;8.1;5.2;;;;;;;;;;;;;
2019/09/02 04:56:33;;;;;;;8.3;5.1;;;;;;;;;;;;;
2019/09/02 04:58:53;;;;;;;8.1;5.2;;;;;;;;;;;;;
2019/09/02 05:01:16;;;;;;;6.8;5.4;;;;;;;;;;;;;
2019/09/02 05:03:47;;;;;;;7.7;5.4;;;;;;;;;;;;;
2019/09/02 05:06:09;;;;;;;8.3;5.6;;;;;;;;;;;;;
2019/09/02 05:08:35;;;;;;;7.5;5.6;;;;;;;;;;;;;
2019/09/02 05:11:01;;;;;;;9.8;5.7;;;;;;;;;;;;;
2019/09/02 05:13:28;;;;;;;7.2;5.8;;;;;;;;;;;;;
2019/09/02 05:15:53;;;;;;;9;6.2;;;;;;;;;;;;;
2019/09/02 05:18:24;;;;;;;8.6;6.5;;;;;;;;;;;;;
2019/09/02 05:20:47;;;;;;;7.3;6.2;;;;;;;;;;;;;
2019/09/02 05:23:09;;;;;;;8.1;6.1;;;;;;;;;;;;;
2019/09/02 05:25:35;;;;;;;8.7;6;;;;;;;;;;;;;
2019/09/02 05:28:01;;;;;;;8.2;6;;;;;;;;;;;;;
2019/09/02 05:30:29;;;;;;;8.7;6.2;;;;;;;;;;;;;
2019/09/02 05:32:56;;;;;;;10.7;6.5;;;;;;;;;;;;;
2019/09/02 05:35:25;;;;;;;8.3;6;;;;;;;;;;;;;
2019/09/02 05:37:54;;;;;;;9;6.1;;;;;;;;;;;;;
2019/09/02 05:40:20;;;;;;;7.5;6.1;;;;;;;;;;;;;
2019/09/02 05:42:46;;;;;;;8.4;5.9;;;;;;;;;;;;;
2019/09/02 05:45:14;;;;;;;9.3;6.2;;;;;;;;;;;;;
2019/09/02 05:47:36;;;;;;;8.8;6.3;;;;;;;;;;;;;
2019/09/02 05:50:03;;;;;;;8.7;6.5;;;;;;;;;;;;;
2019/09/02 05:55:15;;;;;;;6.6;5.4;;;;;;;;;;;;;
2019/09/02 05:57:39;;;;;;;7.7;4.7;;;;;;;;;;;;;
2019/09/02 06:00:06;;;;;;;6.4;4.7;;;;;;;;;;;;;
2019/09/02 06:02:29;;;;;;;6.2;4.3;;;;;;;;;;;;;
2019/09/02 06:04:57;;;;;;;7;4.5;;;;;;;;;;;;;
2019/09/02 06:07:19;;;;;;;6.9;4.7;;;;;;;;;;;;;
2019/09/02 06:09:46;;;;;;;6.6;4.8;;;;;;;;;;;;;
2019/09/02 06:12:15;;;;;;;8.3;5;;;;;;;;;;;;;
2019/09/02 06:14:37;;;;;;;7.1;4.6;;;;;;;;;;;;;
2019/09/02 06:17:03;;;;;;;7.6;5.1;;;;;;;;;;;;;
2019/09/02 06:19:27;;;;;;;7.3;4.6;;;;;;;;;;;;;
2019/09/02 06:21:56;;;;;;;6.2;4.8;;;;;;;;;;;;;
2019/09/02 06:24:18;;;;;;;6.4;5;;;;;;;;;;;;;
2019/09/02 06:26:44;;;;;;;6.8;5.2;;;;;;;;;;;;;
2019/09/02 06:29:09;;;;;;;6.4;5.3;;;;;;;;;;;;;
2019/09/02 06:31:42;;;;;;;6.5;5;;;;;;;;;;;;;
2019/09/02 06:34:15;;;;;;;7.2;4.8;;;;;;;;;;;;;
2019/09/02 06:36:42;;;;;;;5.8;4.6;;;;;;;;;;;;;
2019/09/02 06:39:07;;;;;;;8;4.7;;;;;;;;;;;;;
2019/09/02 06:41:30;;;;;;;7.5;5.4;;;;;;;;;;;;;
2019/09/02 06:43:57;;;;;;;6.3;4.9;;;;;;;;;;;;;
2019/09/02 06:46:22;;;;;;;6.6;4.9;;;;;;;;;;;;;
2019/09/02 06:48:49;;;;;;;5.5;4.5;;;;;;;;;;;;;
2019/09/02 06:52:11;;;;;;;5.3;4.5;;;;;;;;;;;;;
2019/09/02 06:53:41;;;;;;;7.4;5.1;;;;;;;;;;;;;
2019/09/02 06:56:09;;;;;;;7.6;5.7;;;;;;;;;;;;;
2019/09/02 06:58:41;;;;;;;9.6;6.2;;;;;;;;;;;;;
2019/09/02 07:01:01;;;;;;;7.1;6;;;;;;;;;;;;;
2019/09/02 07:03:25;;;;;;;9.9;6;;;;;;;;;;;;;
2019/09/02 07:05:54;;;;;;;7.4;6.3;;;;;;;;;;;;;
2019/09/02 07:08:18;;;;;;;9.6;6.9;;;;;;;;;;;;;
2019/09/02 07:10:49;;;;;;;8.6;6.9;;;;;;;;;;;;;
2019/09/02 07:13:14;;;;;;;9.2;7.1;;;;;;;;;;;;;
2019/09/02 07:15:37;;;;;;;8.9;6.7;;;;;;;;;;;;;
2019/09/02 07:18:02;;;;;;;8.6;6.5;;;;;;;;;;;;;
2019/09/02 07:20:31;;;;;;;8.1;6.7;;;;;;;;;;;;;
2019/09/02 07:22:55;;;;;;;7.5;6.4;;;;;;;;;;;;;
2019/09/02 07:25:21;;;;;;;7.4;6.2;;;;;;;;;;;;;
2019/09/02 07:27:45;;;;;;;8.5;6.6;;;;;;;;;;;;;
2019/09/02 07:32:41;;;;;;;10.7;6.2;;;;;;;;;;;;;
2019/09/02 07:35:05;;;;;;;7.5;6.4;;;;;;;;;;;;;
2019/09/02 07:37:33;;;;;;;8.2;5.9;;;;;;;;;;;;;
2019/09/02 07:40:20;;;;;;;6.4;5.5;;;;;;;;;;;;;
2019/09/02 07:42:46;;;;;;;6.6;5.9;;;;;;;;;;;;;
2019/09/02 07:45:19;;;;;;;7.4;6.1;;;;;;;;;;;;;
2019/09/02 07:47:40;;;;;;;7.6;6;;;;;;;;;;;;;
2019/09/02 07:50:11;;;;;;;6.7;5.5;;;;;;;;;;;;;
2019/09/02 07:52:33;;;;;;;8.3;5.7;;;;;;;;;;;;;
2019/09/02 07:54:56;;;;;;;7.3;5.8;;;;;;;;;;;;;
2019/09/02 07:57:22;;;;;;;8.5;5.8;;;;;;;;;;;;;
2019/09/02 07:59:54;;;;;;;6.4;5.4;;;;;;;;;;;;;
2019/09/02 08:02:24;;;;;;;8.7;5.9;;;;;;;;;;;;;
2019/09/02 08:04:47;;;;;;;7.1;5.9;;;;;;;;;;;;;
2019/09/02 08:07:12;;;;;;;7.5;6;;;;;;;;;;;;;
2019/09/02 08:09:42;;;;;;;6.7;6;;;;;;;;;;;;;
2019/09/02 08:12:07;;;;;;;6.6;5.4;;;;;;;;;;;;;
2019/09/02 08:14:36;;;;;;;6.6;5.6;;;;;;;;;;;;;
2019/09/02 08:16:58;;;;;;;6.2;5.4;;;;;;;;;;;;;
2019/09/02 08:19:24;;;;;;;5.8;5.2;;;;;;;;;;;;;
2019/09/02 08:21:48;;;;;;;6.2;5.1;;;;;;;;;;;;;
2019/09/02 08:24:18;;;;;;;6;5.2;;;;;;;;;;;;;
2019/09/02 08:26:41;;;;;;;5.4;4.9;;;;;;;;;;;;;
2019/09/02 08:29:04;;;;;;;6.3;4.8;;;;;;;;;;;;;
2019/09/02 08:31:35;;;;;;;7.2;4.6;;;;;;;;;;;;;
2019/09/02 08:34:03;;;;;;;7.1;4.4;;;;;;;;;;;;;
2019/09/02 08:36:35;;;;;;;4.8;4.2;;;;;;;;;;;;;
2019/09/02 08:38:54;;;;;;;5.1;3.8;;;;;;;;;;;;;
2019/09/02 08:41:20;;;;;;;5.7;4.4;;;;;;;;;;;;;
2019/09/02 08:43:45;;;;;;;5.5;4.4;;;;;;;;;;;;;
2019/09/02 08:46:16;;;;;;;5;4.3;;;;;;;;;;;;;
2019/09/02 08:48:49;;;;;;;5.2;4.7;;;;;;;;;;;;;
2019/09/02 08:51:12;;;;;;;6.7;4.6;;;;;;;;;;;;;
2019/09/02 08:53:42;;;;;;;6;5.1;;;;;;;;;;;;;
2019/09/02 08:56:06;;;;;;;5.9;5;;;;;;;;;;;;;
2019/09/02 08:58:35;;;;;;;6.8;5;;;;;;;;;;;;;
2019/09/02 09:00:59;;;;;;;5.9;4.8;;;;;;;;;;;;;
2019/09/02 09:03:23;;;;;;;5.5;4.7;;;;;;;;;;;;;
2019/09/02 09:05:49;;;;;;;5.2;4.6;;;;;;;;;;;;;
2019/09/02 09:08:17;;;;;;;6.4;4.3;;;;;;;;;;;;;
2019/09/02 09:10:45;;;;;;;5.8;4.7;;;;;;;;;;;;;
2019/09/02 09:13:18;;;;;;;4.8;4.3;;;;;;;;;;;;;
2019/09/02 09:16:10;;;;;;;4.2;3.7;;;;;;;;;;;;;
2019/09/02 09:18:37;;;;;;;5.3;3.6;;;;;;;;;;;;;
2019/09/02 09:20:55;;;;;;;4.1;3.4;;;;;;;;;;;;;
2019/09/02 09:23:24;;;;;;;3.8;3.3;;;;;;;;;;;;;
2019/09/02 09:25:49;;;;;;;3.9;3.5;;;;;;;;;;;;;
2019/09/02 09:28:14;;;;;;;5.1;3.6;;;;;;;;;;;;;
2019/09/02 09:30:38;;;;;;;4.5;3.8;;;;;;;;;;;;;
2019/09/02 09:33:10;;;;;;;4.5;3.7;;;;;;;;;;;;;
2019/09/02 09:38:01;;;;;;;4.9;3.6;;;;;;;;;;;;;
2019/09/02 09:40:26;;;;;;;4.2;3.4;;;;;;;;;;;;;
2019/09/02 09:43:00;;;;;;;4.1;3.4;;;;;;;;;;;;;
2019/09/02 09:45:24;;;;;;;4.6;3.4;;;;;;;;;;;;;
2019/09/02 09:47:48;;;;;;;4.4;3.8;;;;;;;;;;;;;
2019/09/02 09:50:17;;;;;;;4.6;3.5;;;;;;;;;;;;;
2019/09/02 09:52:39;;;;;;;5.1;3.7;;;;;;;;;;;;;
2019/09/02 09:55:05;;;;;;;4.5;4;;;;;;;;;;;;;
2019/09/02 09:57:33;;;;;;;4.9;4.1;;;;;;;;;;;;;
2019/09/02 09:59:57;;;;;;;4.1;3.7;;;;;;;;;;;;;
2019/09/02 10:02:23;;;;;;;3.5;3.1;;;;;;;;;;;;;
2019/09/02 10:04:47;;;;;;;4.9;3.7;;;;;;;;;;;;;
2019/09/02 10:07:15;;;;;;;4;3.6;;;;;;;;;;;;;
2019/09/02 10:09:39;;;;;;;3.2;2.9;;;;;;;;;;;;;
2019/09/02 10:12:06;;;;;;;3.1;2.8;;;;;;;;;;;;;
2019/09/02 10:14:28;;;;;;;4.1;3.6;;;;;;;;;;;;;
2019/09/02 10:16:55;;;;;;;4;3.5;;;;;;;;;;;;;
2019/09/02 10:19:19;;;;;;;5;3.6;;;;;;;;;;;;;
2019/09/02 10:21:51;;;;;;;5.1;3.7;;;;;;;;;;;;;
2019/09/02 10:24:18;;;;;;;4.8;3.6;;;;;;;;;;;;;
2019/09/02 10:26:49;;;;;;;4.3;3.8;;;;;;;;;;;;;
2019/09/02 10:29:12;;;;;;;5;3.8;;;;;;;;;;;;;
2019/09/02 10:34:00;;;;;;;4.3;3.8;;;;;;;;;;;;;
2019/09/02 10:36:25;;;;;;;5;3.9;;;;;;;;;;;;;
2019/09/02 10:39:16;;;;;;;4.3;3.9;;;;;;;;;;;;;
2019/09/02 10:41:35;;;;;;;5;4;;;;;;;;;;;;;
2019/09/02 10:43:56;;;;;;;5.3;4.2;;;;;;;;;;;;;
2019/09/02 10:46:24;;;;;;;5;4.2;;;;;;;;;;;;;
2019/09/02 10:48:49;;;;;;;4.6;4.1;;;;;;;;;;;;;
2019/09/02 10:51:17;;;;;;;4.7;3.7;;;;;;;;;;;;;
2019/09/02 10:53:47;;;;;;;5.1;3.5;;;;;;;;;;;;;
2019/09/02 10:56:14;;;;;;;4.6;4.1;;;;;;;;;;;;;
2019/09/02 10:59:13;;;;;;;4.4;3.9;;;;;;;;;;;;;
2019/09/02 11:01:35;;;;;;;4.2;3.8;;;;;;;;;;;;;
2019/09/02 11:03:59;;;;;;;4;3.5;;;;;;;;;;;;;
2019/09/02 11:06:31;;;;;;;4;3.5;;;;;;;;;;;;;
2019/09/02 11:08:59;;;;;;;4.1;3.4;;;;;;;;;;;;;
2019/09/02 11:11:32;;;;;;;4.7;3.9;;;;;;;;;;;;;
2019/09/02 11:13:50;;;;;;;5.1;3.8;;;;;;;;;;;;;
2019/09/02 11:16:13;;;;;;;5.1;3.8;;;;;;;;;;;;;
2019/09/02 11:18:37;;;;;;;5.6;4.1;;;;;;;;;;;;;
2019/09/02 11:21:06;;;;;;;4.9;3.8;;;;;;;;;;;;;
2019/09/02 11:23:28;;;;;;;4.3;3.8;;;;;;;;;;;;;
2019/09/02 11:26:14;;;;;;;4.4;3.8;;;;;;;;;;;;;
2019/09/02 11:28:40;;;;;;;4.2;3.8;;;;;;;;;;;;;
2019/09/02 11:31:05;;;;;;;3.9;3.5;;;;;;;;;;;;;
2019/09/02 11:33:28;;;;;;;3.7;3.3;;;;;;;;;;;;;
2019/09/02 11:36:06;;;;;;;3.3;3;;;;;;;;;;;;;
2019/09/02 11:38:33;;;;;;;3.4;3;;;;;;;;;;;;;
2019/09/02 11:41:10;;;;;;;3.4;2.8;;;;;;;;;;;;;
2019/09/02 11:43:28;;;;;;;3.3;2.5;;;;;;;;;;;;;
2019/09/02 11:45:57;;;;;;;4.3;3.1;;;;;;;;;;;;;
2019/09/02 11:48:18;;;;;;;4.1;3;;;;;;;;;;;;;
2019/09/02 11:51:13;;;;;;;3.9;3.2;;;;;;;;;;;;;
2019/09/02 11:53:56;;;;;;;4.3;3.7;;;;;;;;;;;;;
2019/09/02 11:59:18;;;;;;;4.3;3.9;;;;;;;;;;;;;
2019/09/02 12:01:45;;;;;;;6.6;4.4;;;;;;;;;;;;;
2019/09/02 12:04:09;;;;;;;7.7;5.8;;;;;;;;;;;;;
2019/09/02 12:06:41;;;;;;;8.2;6.1;;;;;;;;;;;;;
2019/09/02 12:09:01;;;;;;;9.2;6.5;;;;;;;;;;;;;
2019/09/02 12:11:37;;;;;;;8.6;6.3;;;;;;;;;;;;;
2019/09/02 12:14:06;;;;;;;9.5;6.7;;;;;;;;;;;;;
2019/09/02 12:16:29;;;;;;;7.3;6.2;;;;;;;;;;;;;
2019/09/02 12:18:53;;;;;;;7;6.1;;;;;;;;;;;;;
2019/09/02 12:21:18;;;;;;;7.5;6.3;;;;;;;;;;;;;
2019/09/02 12:23:50;;;;;;;6.7;6;;;;;;;;;;;;;
2019/09/02 12:26:08;;;;;;;8;6.2;;;;;;;;;;;;;
2019/09/02 12:28:34;;;;;;;6.6;5.8;;;;;;;;;;;;;
2019/09/02 12:31:06;;;;;;;6.3;5.7;;;;;;;;;;;;;
2019/09/02 12:33:31;;;;;;;7.8;5.9;;;;;;;;;;;;;
2019/09/02 12:36:02;;;;;;;7.2;6.1;;;;;;;;;;;;;
2019/09/02 12:38:22;;;;;;;7.5;6.6;;;;;;;;;;;;;
2019/09/02 12:40:48;;;;;;;7.8;7;;;;;;;;;;;;;
2019/09/02 12:43:11;;;;;;;9.6;7.1;;;;;;;;;;;;;
2019/09/02 12:45:36;;;;;;;8.3;7.1;;;;;;;;;;;;;
2019/09/02 12:48:03;;;;;;;9.1;7.6;;;;;;;;;;;;;
2019/09/02 12:50:28;;;;;;;8.3;7.4;;;;;;;;;;;;;
2019/09/02 12:53:01;;;;;;;9;7.4;;;;;;;;;;;;;
2019/09/02 12:55:25;;;;;;;11.7;7.3;;;;;;;;;;;;;
2019/09/02 12:58:11;;;;;;;9.9;7.4;;;;;;;;;;;;;
2019/09/02 13:00:17;;;;;;;9.3;7.1;;;;;;;;;;;;;
2019/09/02 13:02:43;;;;;;;8.2;6.5;;;;;;;;;;;;;
2019/09/02 13:05:07;;;;;;;8;6.6;;;;;;;;;;;;;
2019/09/02 13:07:36;;;;;;;10.7;7.3;;;;;;;;;;;;;
2019/09/02 13:10:02;;;;;;;9.5;6.5;;;;;;;;;;;;;
2019/09/02 13:12:27;;;;;;;10.5;7.7;;;;;;;;;;;;;
2019/09/02 13:14:58;;;;;;;9.7;7.6;;;;;;;;;;;;;
2019/09/02 13:17:22;;;;;;;11.3;7.5;;;;;;;;;;;;;
2019/09/02 13:19:50;;;;;;;10;7.3;;;;;;;;;;;;;
2019/09/02 13:22:14;;;;;;;9.4;7.7;;;;;;;;;;;;;
2019/09/02 13:24:38;;;;;;;9.9;7.6;;;;;;;;;;;;;
2019/09/02 13:27:13;;;;;;;11.3;7.7;;;;;;;;;;;;;
2019/09/02 13:29:35;;;;;;;9.2;7.5;;;;;;;;;;;;;
2019/09/02 13:31:59;;;;;;;9.9;7.3;;;;;;;;;;;;;
2019/09/02 13:34:20;;;;;;;12.3;7.7;;;;;;;;;;;;;
2019/09/02 13:36:49;;;;;;;10.9;7.9;;;;;;;;;;;;;
2019/09/02 13:39:11;;;;;;;9.7;7.5;;;;;;;;;;;;;
2019/09/02 13:41:38;;;;;;;8.8;7;;;;;;;;;;;;;
2019/09/02 13:44:01;;;;;;;10.9;7.8;;;;;;;;;;;;;
2019/09/02 13:46:42;;;;;;;9.2;7.3;;;;;;;;;;;;;
2019/09/02 13:49:04;;;;;;;10.9;7.3;;;;;;;;;;;;;
2019/09/02 13:51:31;;;;;;;9.5;7;;;;;;;;;;;;;
2019/09/02 13:55:27;;;;;;;9.6;7.3;;;;;;;;;;;;;
2019/09/02 13:56:38;;;;;;;8.1;6.5;;;;;;;;;;;;;
2019/09/02 13:59:13;;;;;;;9.7;5.8;;;;;;;;;;;;;
2019/09/02 14:01:37;;;;;;;10.5;6.1;;;;;;;;;;;;;
2019/09/02 14:04:02;;;;;;;8.3;6.1;;;;;;;;;;;;;
2019/09/02 14:06:33;;;;;;;7.6;5.6;;;;;;;;;;;;;
2019/09/02 14:09:06;;;;;;;9.6;5.5;;;;;;;;;;;;;
2019/09/02 14:11:26;;;;;;;10.1;5.9;;;;;;;;;;;;;
2019/09/02 14:13:49;;;;;;;8.6;5.9;;;;;;;;;;;;;
2019/09/02 14:16:15;;;;;;;9.4;6.2;;;;;;;;;;;;;
2019/09/02 14:18:38;;;;;;;9.2;6.8;;;;;;;;;;;;;
2019/09/02 14:21:07;;;;;;;10.2;6.8;;;;;;;;;;;;;
2019/09/02 14:23:35;;;;;;;10.2;7;;;;;;;;;;;;;
2019/09/02 14:25:59;;;;;;;9.5;6.6;;;;;;;;;;;;;
2019/09/02 14:28:30;;;;;;;9.7;7;;;;;;;;;;;;;
2019/09/02 14:30:49;;;;;;;9.8;7.8;;;;;;;;;;;;;
2019/09/02 14:33:16;;;;;;;10.4;8.3;;;;;;;;;;;;;
2019/09/02 14:35:39;;;;;;;9.2;7.7;;;;;;;;;;;;;
2019/09/02 14:38:08;;;;;;;11;7.6;;;;;;;;;;;;;
2019/09/02 14:41:15;;;;;;;11;8.2;;;;;;;;;;;;;
2019/09/02 14:43:28;;;;;;;10.3;8.1;;;;;;;;;;;;;
2019/09/02 14:45:51;;;;;;;10.7;7.9;;;;;;;;;;;;;
2019/09/02 14:48:22;;;;;;;11.1;7.7;;;;;;;;;;;;;
2019/09/02 14:50:57;;;;;;;9.6;7.6;;;;;;;;;;;;;
2019/09/02 14:53:23;;;;;;;9.1;7.4;;;;;;;;;;;;;
2019/09/02 14:55:41;;;;;;;10.5;7.8;;;;;;;;;;;;;
2019/09/02 14:58:10;;;;;;;10.4;7.9;;;;;;;;;;;;;
2019/09/02 15:00:34;;;;;;;10.4;7;;;;;;;;;;;;;
2019/09/02 15:03:02;;;;;;;11.9;7;;;;;;;;;;;;;
2019/09/02 15:05:37;;;;;;;8.4;6.7;;;;;;;;;;;;;
2019/09/02 15:07:53;;;;;;;9.5;6.8;;;;;;;;;;;;;
2019/09/02 15:10:28;;;;;;;8.4;6.6;;;;;;;;;;;;;
2019/09/02 15:12:53;;;;;;;9.6;6.7;;;;;;;;;;;;;
2019/09/02 15:15:23;;;;;;;7.8;6.3;;;;;;;;;;;;;
2019/09/02 15:18:24;;;;;;;9.8;6.4;;;;;;;;;;;;;
2019/09/02 15:22:54;;;;;;;13.2;8.9;;;;;;;;;;;;;
2019/09/02 15:25:24;;;;;;;10.7;8.5;;;;;;;;;;;;;
2019/09/02 15:28:21;;;;;;;11.5;8.5;;;;;;;;;;;;;
2019/09/02 15:30:38;;;;;;;11.5;8.6;;;;;;;;;;;;;
2019/09/02 15:33:12;;;;;;;10.2;8.4;;;;;;;;;;;;;
2019/09/02 15:35:29;;;;;;;9.4;7.5;;;;;;;;;;;;;
2019/09/02 15:37:58;;;;;;;9.4;5.6;;;;;;;;;;;;;
2019/09/02 15:40:24;;;;;;;12.2;6.5;;;;;;;;;;;;;
2019/09/02 15:42:55;;;;;;;11.1;6.1;;;;;;;;;;;;;
2019/09/02 15:45:16;;;;;;;9.6;5;;;;;;;;;;;;;
2019/09/02 15:47:46;;;;;;;8.7;5.6;;;;;;;;;;;;;
2019/09/02 15:50:13;;;;;;;5.8;5.1;;;;;;;;;;;;;
2019/09/02 15:52:37;;;;;;;8.4;4.7;;;;;;;;;;;;;
2019/09/02 15:55:05;;;;;;;10;5;;;;;;;;;;;;;
2019/09/02 15:57:31;;;;;;;10.3;4.9;;;;;;;;;;;;;
2019/09/02 15:59:54;;;;;;;8.8;4.9;;;;;;;;;;;;;
2019/09/02 16:02:20;;;;;;;7.7;4.8;;;;;;;;;;;;;
2019/09/02 16:04:43;;;;;;;8.1;5.6;;;;;;;;;;;;;
2019/09/02 16:07:10;;;;;;;10.3;5.7;;;;;;;;;;;;;
2019/09/02 16:09:35;;;;;;;9.6;5.5;;;;;;;;;;;;;
2019/09/02 16:11:59;;;;;;;10.3;5.5;;;;;;;;;;;;;
2019/09/02 16:14:24;;;;;;;9;5.8;;;;;;;;;;;;;
2019/09/02 16:16:53;;;;;;;12.7;5.7;;;;;;;;;;;;;
2019/09/02 16:19:23;;;;;;;12.9;6.1;;;;;;;;;;;;;
2019/09/02 16:21:51;;;;;;;10.3;5.7;;;;;;;;;;;;;
2019/09/02 16:24:16;;;;;;;9.7;5.6;;;;;;;;;;;;;
2019/09/02 16:26:44;;;;;;;8.7;5.7;;;;;;;;;;;;;
2019/09/02 16:29:07;;;;;;;11.8;5.7;;;;;;;;;;;;;
2019/09/02 16:31:39;;;;;;;10;5.9;;;;;;;;;;;;;
2019/09/02 16:34:01;;;;;;;7.7;5.7;;;;;;;;;;;;;
2019/09/02 16:36:27;;;;;;;9.8;5.9;;;;;;;;;;;;;
2019/09/02 16:38:55;;;;;;;8.1;5.4;;;;;;;;;;;;;
2019/09/02 16:41:19;;;;;;;10.5;5.9;;;;;;;;;;;;;
2019/09/02 16:43:44;;;;;;;8.9;5.7;;;;;;;;;;;;;
2019/09/02 16:46:08;;;;;;;8.9;5.6;;;;;;;;;;;;;
2019/09/02 16:48:36;;;;;;;9.4;6.2;;;;;;;;;;;;;
2019/09/02 16:51:15;;;;;;;10.6;6.4;;;;;;;;;;;;;
2019/09/02 16:53:30;;;;;;;10.3;6.5;;;;;;;;;;;;;
2019/09/02 16:56:01;;;;;;;10.5;5.9;;;;;;;;;;;;;
2019/09/02 16:58:35;;;;;;;9.1;6.2;;;;;;;;;;;;;
2019/09/02 17:01:14;;;;;;;8.7;5.5;;;;;;;;;;;;;
2019/09/02 17:03:38;;;;;;;11.4;6.7;;;;;;;;;;;;;
2019/09/02 17:06:04;;;;;;;10.6;6.6;;;;;;;;;;;;;
2019/09/02 17:11:11;;;;;;;9;7.1;;;;;;;;;;;;;
2019/09/02 17:16:46;;;;;;;9.9;7.1;;;;;;;;;;;;;
2019/09/02 17:19:25;;;;;;;9.5;7;;;;;;;;;;;;;
2019/09/02 17:21:51;;;;;;;10.5;7.2;;;;;;;;;;;;;
2019/09/02 17:25:07;;;;;;;10.8;7.7;;;;;;;;;;;;;
2019/09/02 17:27:01;;;;;;;13.9;7.2;;;;;;;;;;;;;
2019/09/02 17:29:22;;;;;;;10.3;7.5;;;;;;;;;;;;;
2019/09/02 17:31:53;;;;;;;17.8;12.9;;;;;;;;;;;;;
2019/09/02 17:34:29;;;;;;;10.2;6.8;;;;;;;;;;;;;
2019/09/02 17:39:21;;;;;;;8.5;5.8;;;;;;;;;;;;;
2019/09/02 17:41:45;;;;;;;9.5;5.7;;;;;;;;;;;;;
2019/09/02 17:44:18;;;;;;;8.3;5.1;;;;;;;;;;;;;
2019/09/02 17:46:43;;;;;;;10.4;6.3;;;;;;;;;;;;;
2019/09/02 17:49:12;;;;;;;8.6;5.9;;;;;;;;;;;;;
2019/09/02 17:51:37;;;;;;;12.4;6.5;;;;;;;;;;;;;
2019/09/02 17:54:00;;;;;;;11.1;6.3;;;;;;;;;;;;;
2019/09/02 17:56:23;;;;;;;11.1;6.4;;;;;;;;;;;;;
2019/09/02 17:58:53;;;;;;;11.1;6.2;;;;;;;;;;;;;
2019/09/02 18:01:39;;;;;;;10;6.4;;;;;;;;;;;;;
2019/09/02 18:06:30;;;;;;;10.1;6.6;;;;;;;;;;;;;
2019/09/02 18:08:55;;;;;;;12.1;6.3;;;;;;;;;;;;;
2019/09/02 18:11:21;;;;;;;11.2;6.7;;;;;;;;;;;;;
2019/09/02 18:13:44;;;;;;;10;6.6;;;;;;;;;;;;;
2019/09/02 18:16:17;;;;;;;11.9;6.9;;;;;;;;;;;;;
2019/09/02 18:18:51;;;;;;;12.3;8.4;;;;;;;;;;;;;
2019/09/02 18:21:14;;;;;;;15.5;9;;;;;;;;;;;;;
2019/09/02 18:23:38;;;;;;;10.9;7.7;;;;;;;;;;;;;
2019/09/02 18:26:05;;;;;;;11.3;6.4;;;;;;;;;;;;;
2019/09/02 18:28:31;;;;;;;12.2;8.1;;;;;;;;;;;;;
2019/09/02 18:31:01;;;;;;;9.6;6.5;;;;;;;;;;;;;
2019/09/02 18:33:31;;;;;;;8.6;5.8;;;;;;;;;;;;;
2019/09/02 18:36:19;;;;;;;9.4;4.9;;;;;;;;;;;;;
2019/09/02 18:39:15;;;;;;;7.7;5.3;;;;;;;;;;;;;
2019/09/02 18:41:22;;;;;;;10.2;5.2;;;;;;;;;;;;;
2019/09/02 18:44:18;;;;;;;7.1;5.1;;;;;;;;;;;;;
2019/09/02 18:46:30;;;;;;;8.4;5.9;;;;;;;;;;;;;
2019/09/02 18:49:04;;;;;;;11.1;7.4;;;;;;;;;;;;;
2019/09/02 18:51:25;;;;;;;7.9;6.3;;;;;;;;;;;;;
2019/09/02 18:53:53;;;;;;;9.8;6.4;;;;;;;;;;;;;
2019/09/02 18:56:24;;;;;;;10.2;6.2;;;;;;;;;;;;;
2019/09/02 18:58:53;;;;;;;12.1;6.4;;;;;;;;;;;;;
2019/09/02 19:01:17;;;;;;;9.5;5.8;;;;;;;;;;;;;
2019/09/02 19:03:44;;;;;;;9.3;5.8;;;;;;;;;;;;;
2019/09/02 19:06:14;;;;;;;8;5.8;;;;;;;;;;;;;
2019/09/02 19:08:35;;;;;;;9.2;5.7;;;;;;;;;;;;;
2019/09/02 19:11:05;;;;;;;10.5;6.5;;;;;;;;;;;;;
2019/09/02 19:15:54;;;;;;;9.3;6;;;;;;;;;;;;;
2019/09/02 19:18:19;;;;;;;7.4;5.1;;;;;;;;;;;;;
2019/09/02 19:20:48;;;;;;;8.6;5.2;;;;;;;;;;;;;
2019/09/02 19:23:29;;;;;;;6.8;5.1;;;;;;;;;;;;;
2019/09/02 19:25:54;;;;;;;8.5;4.8;;;;;;;;;;;;;
2019/09/02 19:28:18;;;;;;;7.6;5.5;;;;;;;;;;;;;
2019/09/02 19:33:21;;;;;;;8;5;;;;;;;;;;;;;
2019/09/02 19:35:53;;;;;;;8.2;5.7;;;;;;;;;;;;;
2019/09/02 19:38:18;;;;;;;7.5;5.3;;;;;;;;;;;;;
2019/09/02 19:40:52;;;;;;;9.6;6.8;;;;;;;;;;;;;
2019/09/02 19:43:07;;;;;;;11.8;7.1;;;;;;;;;;;;;
2019/09/02 19:45:34;;;;;;;12;8.3;;;;;;;;;;;;;
2019/09/02 19:48:14;;;;;;;11.2;8.1;;;;;;;;;;;;;
2019/09/02 19:50:43;;;;;;;12.3;8.1;;;;;;;;;;;;;
2019/09/02 19:53:21;;;;;;;9.7;6.6;;;;;;;;;;;;;
2019/09/02 19:55:37;;;;;;;11.6;6.8;;;;;;;;;;;;;
2019/09/02 19:58:36;;;;;;;9.3;6.1;;;;;;;;;;;;;
2019/09/02 20:00:55;;;;;;;10.4;5.8;;;;;;;;;;;;;
2019/09/02 20:03:20;;;;;;;7;5.4;;;;;;;;;;;;;
2019/09/02 20:05:48;;;;;;;7.7;5.1;;;;;;;;;;;;;
2019/09/02 20:08:13;;;;;;;10.2;5.2;;;;;;;;;;;;;
2019/09/02 20:10:38;;;;;;;8.9;6.6;;;;;;;;;;;;;
2019/09/02 20:13:02;;;;;;;8.6;6.4;;;;;;;;;;;;;
2019/09/02 20:15:28;;;;;;;12.8;7.6;;;;;;;;;;;;;
2019/09/02 20:17:54;;;;;;;8.7;6.4;;;;;;;;;;;;;
2019/09/02 20:20:19;;;;;;;9.4;6.3;;;;;;;;;;;;;
2019/09/02 20:22:44;;;;;;;7.2;5.5;;;;;;;;;;;;;
2019/09/02 20:25:13;;;;;;;7.1;4.6;;;;;;;;;;;;;
2019/09/02 20:27:37;;;;;;;7;4.4;;;;;;;;;;;;;
2019/09/02 20:30:02;;;;;;;7.4;4.9;;;;;;;;;;;;;
2019/09/02 20:32:27;;;;;;;6;4.7;;;;;;;;;;;;;
2019/09/02 20:34:52;;;;;;;6.7;4.9;;;;;;;;;;;;;
2019/09/02 20:37:15;;;;;;;6.5;4.6;;;;;;;;;;;;;
2019/09/02 20:39:41;;;;;;;6.6;4.8;;;;;;;;;;;;;
2019/09/02 20:42:09;;;;;;;7.1;4.7;;;;;;;;;;;;;
2019/09/02 20:44:35;;;;;;;6.8;4.8;;;;;;;;;;;;;
2019/09/02 20:46:58;;;;;;;6.7;4.8;;;;;;;;;;;;;
2019/09/02 20:49:30;;;;;;;6;4.9;;;;;;;;;;;;;
2019/09/02 20:51:55;;;;;;;6.8;5;;;;;;;;;;;;;
2019/09/02 20:54:17;;;;;;;8.9;5;;;;;;;;;;;;;
2019/09/02 20:59:46;;;;;;;6;4.9;;;;;;;;;;;;;
2019/09/02 21:02:05;;;;;;;5.5;4.5;;;;;;;;;;;;;
2019/09/02 21:04:28;;;;;;;7.3;4.3;;;;;;;;;;;;;
2019/09/02 21:06:56;;;;;;;8.4;5;;;;;;;;;;;;;
2019/09/02 21:09:23;;;;;;;8.9;4.3;;;;;;;;;;;;;
2019/09/02 21:11:46;;;;;;;6;4.9;;;;;;;;;;;;;
2019/09/02 21:14:12;;;;;;;5;4.2;;;;;;;;;;;;;
2019/09/02 21:16:41;;;;;;;6.7;4.5;;;;;;;;;;;;;